Riverton, WY

10:26 AM MDT on July 29, 2014 (GMT -0600)
KWYRIVER2 Elev 5405 ft | 43.08 °N, 108.52 °W | Change Station

Current weather conditions updated 2 minutes ago

Rain
Rain
59.3 °F
Feels Like 59.3 °F
N
7.0
Wind Variable Wind from NNE

Today is forecast to be Much Cooler than yesterday. Thunderstorms.

Today
High -- | Low -- °F
--% Chance of Precip.
Yesterday
High -- | Low -- °F
Precip. -- in
6:01 AM 8:38 PM
Waxing Crescent, 7% visible
Pressure 30.17 in
Visibility 6.0 miles
Clouds Mostly Cloudy 4800 ft
Overcast 6000 ft
Dew Point 56 °F
Humidity 89%
Rainfall 0.36 in
Snow Depth Not available.
UV 0.7 out of 12
Pollen 3.70 out of 12
Air Quality Not available.
Flu Activity Not available.
METAR KRIW 291553Z AUTO 33007KT 6SM RA BKN048 OVC060 16/13 A3036 RMK AO2 LTG DSNT S RAB44 SLP215 P0000 T01610128

More Conditions Fewer Conditions

Pressure 30.17 in
Visibility 6.0 miles
Clouds Mostly Cloudy 4800 ft
Overcast 6000 ft
Dew Point 56 °F
Humidity 89%
Rainfall 0.36 in
Snow Depth Not available.
UV 0.7 out of 12
Pollen 3.70 out of 12
Air Quality Not available.
Flu Activity Not available.
METAR KRIW 291553Z AUTO 33007KT 6SM RA BKN048 OVC060 16/13 A3036 RMK AO2 LTG DSNT S RAB44 SLP215 P0000 T01610128

More Conditions Fewer Conditions

10-Day Weather Forecast

Almanac

Astronomy

Jul. 29, 2014 Rise Set
Actual Time 6:01 AM MDT 8:38 PM MDT
Civil Twilight 5:28 AM MDT 9:11 PM MDT
Nautical Twilight 4:48 AM MDT 9:51 PM MDT
Astronomical Twilight 4:01 AM MDT 10:38 PM MDT
Moon 8:46 AM MDT 9:46 PM MDT
Length of Visible Light 15h 42m
Length of Day
14h 37m
Tomorrow will be 2m 10s shorter.
Waxing Crescent, 7% of the Moon is Illuminated
Today
Waxing Crescent
Aug 3
First Quarter
Aug 10
Full
Aug 17
Last Quarter
Aug 25
New

Today's Extremes

State Highs State Lows

Community

WunderPhotos

Upload Photos

1,738,783 photos uploaded!

Nearby

Snow Depth

Station Depth Elevation
Big Sandy Opening 1 in 9080 ft
Gunsight Pass 1 in 9820 ft
Burroughs Creek 0 in 8750 ft
New Fork Lake 0 in 8340 ft
Kendall R.S. 1 in 7740 ft

Earthquake Activity

City Distance Mag. Time & Date
No recent earthquake activity has been reported nearby.
Minimum magnitude displayed is 2.5.

Coastal Water Temperatures

Place Temperature
No Stations Reporting

Nearby Weather Stations

Station Location Temp. Dew Point Humidity Wind Precip. Elev Updated Type
Riverton, WY 59.3 °F 56 °F 89% NNE  at  7.0 mph - / hr 5405 ft 10:23 AM MDT Normal
Logan Park, Riverton, WY 62.0 °F 57 °F 84% North  at  0.0 mph 0.48 in / hr 4984 ft 10:26 AM MDT Rapid Fire
HADS LITTLE WIND RIVER NEAR RIVERTON WY, Saint Stephens, WY 67 °F - - North  at  - 0.00 in / hr 4900 ft 9:15 AM MDT MADIS

Show More Stations Show Fewer Stations